Warning: Javascript must be enabled to use all the features on this page!


Page Loading - Please Wait...

Click to hideNews Bulletins

Peak Streamflow for the Nation

USGS 02197300 UPPER THREE RUNS NEAR NEW ELLENTON, SC

Aiken County, South Carolina
Hydrologic Unit Code 03060106
Latitude  33°23'05", Longitude  81°37'00" NAD27
Drainage area 87.00  square miles
Gage datum 173.60 feet above NAVD88
Output formats
Table
Graph
Tab-separated file
peakfq (watstore) format
Reselect output format
Water
Year
Date Gage
Height
(feet)
Stream-
flow
(cfs)
1967 1967-08-24 7.005 320
1968 1968-06-09 6.07 237
1969 1969-09-19 6.91 301
1970 1970-03-30 6.83 303
1971 1971-08-17 8.00 420
1972 1972-01-14 7.52 372
1973 1973-06-13 8.37 472
1974 1974-02-07 6.60 260
1975 1975-07-15 7.34 341
1976 1976-05-29 7.96 429
1977 1977-03-22 7.07 304
1978 1978-01-25 7.38 344
1979 1979-04-26 7.36 341
1980 1980-03-13 7.77 400
1981 1981-02-11 7.10 308
1982 1982-01-01 7.57 364
1983 1983-03-06 7.32 331
1984 1984-05-04 8.13 466
1985 1985-02-06 7.75 400
1986 1985-11-22 7.50 360
1987 1987-03-01 7.60 370
1988 1988-09-09 6.86 278
1989 1989-07-05 7.21 301
1990 1990-07-26 6.79 202
1991 1990-10-23 8.80 820
1992 1992-08-20 8.67 742
1993 1993-01-08 7.95 421
1994 1993-10-30 7.44 302
1995 1995-08-26 7.92 412
1996 1996-09-11 7.07 240
1997 1997-02-15 7.173 242
1998 1998-09-03 8.50 596
1999 1999-01-24 7.33 252
2000 2000-09-23 7.54 291
2001 2001-05-29 7.56 296
2002 2002-02-07 6.53 164
?
  Peak Gage-Height Qualification Codes.